createdAt,value
2022-07-27T00:00:50.570Z,17.90
2022-07-27T00:03:17.464Z,17.90
2022-07-27T00:05:44.176Z,17.70
2022-07-27T00:08:10.900Z,17.70
2022-07-27T00:10:38.185Z,17.70
2022-07-27T00:13:06.163Z,17.70
2022-07-27T00:15:34.342Z,17.60
2022-07-27T00:18:01.178Z,17.70
2022-07-27T00:20:29.339Z,17.70
2022-07-27T00:22:56.850Z,17.60
2022-07-27T00:25:24.523Z,17.50
2022-07-27T00:27:51.309Z,17.30
2022-07-27T00:30:18.471Z,17.40
2022-07-27T00:32:45.252Z,17.30
2022-07-27T00:35:12.520Z,17.40
2022-07-27T00:37:40.156Z,17.30
2022-07-27T00:40:08.167Z,17.30
2022-07-27T00:42:35.376Z,17.30
2022-07-27T00:45:03.166Z,17.30
2022-07-27T00:47:29.967Z,17.40
2022-07-27T00:49:58.325Z,17.30
2022-07-27T00:52:26.233Z,17.40
2022-07-27T00:54:53.213Z,17.40
2022-07-27T00:57:20.169Z,17.30
2022-07-27T00:59:46.903Z,17.30
2022-07-27T01:02:19.507Z,17.20
2022-07-27T01:04:47.520Z,17.30
2022-07-27T01:07:15.323Z,17.30
2022-07-27T01:09:58.194Z,17.30
2022-07-27T01:12:31.449Z,17.30
2022-07-27T01:14:59.411Z,17.30
2022-07-27T01:17:27.516Z,17.30
2022-07-27T01:19:54.251Z,17.30
2022-07-27T01:22:21.012Z,17.20
2022-07-27T01:24:49.478Z,17.20
2022-07-27T01:27:17.009Z,17.20
2022-07-27T01:29:43.794Z,17.10
2022-07-27T01:32:10.693Z,17.10
2022-07-27T01:34:37.464Z,17.10
2022-07-27T01:37:05.178Z,17.20
2022-07-27T01:39:32.723Z,17.30
2022-07-27T01:42:00.484Z,17.30
2022-07-27T01:44:27.414Z,17.30
2022-07-27T01:46:54.203Z,17.40
2022-07-27T01:49:21.071Z,17.40
2022-07-27T01:51:47.873Z,17.50
2022-07-27T01:54:15.074Z,17.50
2022-07-27T01:56:42.122Z,17.40
2022-07-27T01:59:16.347Z,17.40
2022-07-27T02:01:44.553Z,17.30
2022-07-27T02:04:11.564Z,17.20
2022-07-27T02:06:38.328Z,17.30
2022-07-27T02:09:05.031Z,17.30
2022-07-27T02:11:50.389Z,17.30
2022-07-27T02:14:17.063Z,17.20
2022-07-27T02:16:43.913Z,17.30
2022-07-27T02:19:14.719Z,17.30
2022-07-27T02:21:41.800Z,17.40
2022-07-27T02:24:08.660Z,17.50
2022-07-27T02:26:35.348Z,17.50
2022-07-27T02:29:02.021Z,17.60
2022-07-27T02:31:32.866Z,17.60
2022-07-27T02:34:00.168Z,17.50
2022-07-27T02:36:29.284Z,17.50
2022-07-27T02:38:57.340Z,17.60
2022-07-27T02:41:24.511Z,17.50
2022-07-27T02:43:51.376Z,17.60
2022-07-27T02:46:18.197Z,17.50
2022-07-27T02:48:45.154Z,17.50
2022-07-27T02:51:12.161Z,17.50
2022-07-27T02:53:38.904Z,17.40
2022-07-27T02:56:05.761Z,17.50
2022-07-27T02:58:32.516Z,17.30
2022-07-27T03:00:59.315Z,17.20
2022-07-27T03:03:36.458Z,17.10
2022-07-27T03:06:05.680Z,17.00
2022-07-27T03:08:32.350Z,16.90
2022-07-27T03:10:59.064Z,16.80
2022-07-27T03:13:26.584Z,16.70
2022-07-27T03:15:53.341Z,16.70
2022-07-27T03:18:20.611Z,16.60
2022-07-27T03:20:47.460Z,16.50
2022-07-27T03:23:14.211Z,16.50
2022-07-27T03:25:40.936Z,16.50
2022-07-27T03:28:07.641Z,16.40
2022-07-27T03:30:34.394Z,16.30
2022-07-27T03:33:01.179Z,16.40
2022-07-27T03:35:28.177Z,16.30
2022-07-27T03:37:54.990Z,16.20
2022-07-27T03:40:21.756Z,16.20
2022-07-27T03:42:48.464Z,16.20
2022-07-27T03:45:15.176Z,16.10
2022-07-27T03:47:41.932Z,16.10
2022-07-27T03:50:08.868Z,16.00
2022-07-27T03:52:35.570Z,15.90
2022-07-27T03:55:02.360Z,15.90
2022-07-27T03:57:30.217Z,15.90
2022-07-27T03:59:56.951Z,15.90
2022-07-27T04:02:23.761Z,15.80
2022-07-27T04:04:50.525Z,15.80
2022-07-27T04:07:17.228Z,15.80
2022-07-27T04:09:44.654Z,15.90
2022-07-27T04:12:13.987Z,15.90
2022-07-27T04:14:43.305Z,15.90
2022-07-27T04:17:10.015Z,16.00
2022-07-27T04:19:36.810Z,16.10
2022-07-27T04:22:04.105Z,16.10
2022-07-27T04:24:30.830Z,16.10
2022-07-27T04:26:57.547Z,16.20
2022-07-27T04:29:24.626Z,16.20
2022-07-27T04:31:51.444Z,16.30
2022-07-27T04:34:19.343Z,16.30
2022-07-27T04:36:46.061Z,16.40
2022-07-27T04:39:13.142Z,16.40
2022-07-27T04:41:43.100Z,16.40
2022-07-27T04:44:09.777Z,16.50
2022-07-27T04:46:37.186Z,16.40
2022-07-27T04:49:03.945Z,16.50
2022-07-27T04:51:34.509Z,16.50
2022-07-27T04:54:02.125Z,16.60
2022-07-27T04:56:31.853Z,16.70
2022-07-27T04:58:58.550Z,16.80
2022-07-27T05:01:26.683Z,17.00
2022-07-27T05:03:55.147Z,17.10
2022-07-27T05:06:22.028Z,17.30
2022-07-27T05:08:48.725Z,17.40
2022-07-27T05:11:15.408Z,17.50
2022-07-27T05:13:42.217Z,17.60
2022-07-27T05:16:10.618Z,17.70
2022-07-27T05:18:38.825Z,17.80
2022-07-27T05:21:06.520Z,17.90
2022-07-27T05:23:34.065Z,17.90
2022-07-27T05:26:00.777Z,17.80
2022-07-27T05:28:27.715Z,17.90
2022-07-27T05:30:54.449Z,17.90
2022-07-27T05:33:21.269Z,18.00
2022-07-27T05:35:47.980Z,18.10
2022-07-27T05:38:14.647Z,18.00
2022-07-27T05:40:44.578Z,18.10
2022-07-27T05:43:11.324Z,18.20
2022-07-27T05:45:38.258Z,18.20
2022-07-27T05:48:05.376Z,18.20
2022-07-27T05:50:32.414Z,18.30
2022-07-27T05:53:00.622Z,18.30
2022-07-27T05:55:27.435Z,18.30
2022-07-27T05:57:54.119Z,18.30
2022-07-27T06:00:20.899Z,18.30
2022-07-27T06:02:47.684Z,18.30
2022-07-27T06:05:16.545Z,18.40
2022-07-27T06:08:00.214Z,18.50
2022-07-27T06:10:28.846Z,18.60
2022-07-27T06:12:56.241Z,18.50
2022-07-27T06:15:23.982Z,18.60
2022-07-27T06:17:53.905Z,18.80
2022-07-27T06:20:22.162Z,19.00
2022-07-27T06:22:50.936Z,19.10
2022-07-27T06:25:19.263Z,19.40
2022-07-27T06:27:46.034Z,19.50
2022-07-27T06:30:16.173Z,19.60
2022-07-27T06:32:43.793Z,19.80
2022-07-27T06:35:12.013Z,19.80
2022-07-27T06:37:44.231Z,20.00
2022-07-27T06:40:14.599Z,20.10
2022-07-27T06:42:41.721Z,20.20
2022-07-27T06:45:09.553Z,20.20
2022-07-27T06:47:49.725Z,20.40
2022-07-27T06:50:18.455Z,20.60
2022-07-27T06:52:45.257Z,20.90
2022-07-27T06:55:12.451Z,21.20
2022-07-27T06:57:39.285Z,21.50
2022-07-27T07:00:07.075Z,21.70
2022-07-27T07:02:33.819Z,21.70
2022-07-27T07:05:00.506Z,21.50
2022-07-27T07:07:27.220Z,21.30
2022-07-27T07:09:53.940Z,21.10
2022-07-27T07:12:20.681Z,21.00
2022-07-27T07:14:47.382Z,20.80
2022-07-27T07:17:14.129Z,20.70
2022-07-27T07:19:40.902Z,20.60
2022-07-27T07:22:07.595Z,20.50
2022-07-27T07:24:34.592Z,20.50
2022-07-27T07:27:01.283Z,20.20
2022-07-27T07:29:27.949Z,20.20
2022-07-27T07:31:54.694Z,20.20
2022-07-27T07:34:21.462Z,20.30
2022-07-27T07:36:48.175Z,20.30
2022-07-27T07:39:15.289Z,20.40
2022-07-27T07:41:42.186Z,20.50
2022-07-27T07:44:10.029Z,20.40
2022-07-27T07:46:37.080Z,20.20
2022-07-27T07:49:05.357Z,20.30
2022-07-27T07:51:32.150Z,20.20
2022-07-27T07:53:58.948Z,20.20
2022-07-27T07:56:25.772Z,20.20
2022-07-27T07:58:52.587Z,20.20
2022-07-27T08:01:19.401Z,20.30
2022-07-27T08:03:50.586Z,20.60
2022-07-27T08:06:18.197Z,20.50
2022-07-27T08:08:44.887Z,20.70
2022-07-27T08:11:11.598Z,20.80
2022-07-27T08:13:38.289Z,20.60
2022-07-27T08:16:05.408Z,20.60
2022-07-27T08:18:32.244Z,20.50
2022-07-27T08:20:59.071Z,20.10
2022-07-27T08:23:27.082Z,20.10
2022-07-27T08:25:54.544Z,20.00
2022-07-27T08:28:21.497Z,20.00
2022-07-27T08:30:49.286Z,20.50
2022-07-27T08:33:16.859Z,21.70
2022-07-27T08:35:44.559Z,23.40
2022-07-27T08:38:11.409Z,23.80
2022-07-27T08:40:41.983Z,24.40
2022-07-27T08:43:10.727Z,26.20
2022-07-27T08:45:38.269Z,27.60
2022-07-27T08:48:05.863Z,29.40
2022-07-27T08:50:34.844Z,30.20
2022-07-27T08:53:09.549Z,30.20
2022-07-27T08:55:38.782Z,30.10
2022-07-27T08:58:07.155Z,30.50
2022-07-27T09:00:35.937Z,30.80
2022-07-27T09:03:03.292Z,31.10
2022-07-27T09:05:37.154Z,32.20
2022-07-27T09:08:31.620Z,32.40
2022-07-27T09:10:59.757Z,33.00
2022-07-27T09:13:28.057Z,33.60
2022-07-27T09:16:18.571Z,32.00
2022-07-27T09:18:44.540Z,32.80
2022-07-27T09:21:20.964Z,33.40
2022-07-27T09:23:52.246Z,34.50
2022-07-27T09:26:32.593Z,34.90
2022-07-27T09:29:09.613Z,35.00
2022-07-27T09:31:47.826Z,35.40
2022-07-27T09:34:28.311Z,35.50
2022-07-27T09:36:57.889Z,35.00
2022-07-27T09:39:27.133Z,33.90
2022-07-27T09:42:02.808Z,35.10
2022-07-27T09:44:43.916Z,35.80
2022-07-27T09:47:26.878Z,35.40
2022-07-27T09:49:58.225Z,35.20
2022-07-27T09:52:28.198Z,34.80
2022-07-27T09:55:01.606Z,33.10
2022-07-27T09:57:28.338Z,32.80
2022-07-27T10:00:13.761Z,33.30
2022-07-27T10:02:42.829Z,34.30
2022-07-27T10:05:10.331Z,33.80
2022-07-27T10:07:38.545Z,33.40
2022-07-27T10:10:05.950Z,33.20
2022-07-27T10:12:32.879Z,33.30
2022-07-27T10:14:59.597Z,34.30
2022-07-27T10:17:26.933Z,33.70
2022-07-27T10:19:53.832Z,32.50
2022-07-27T10:22:52.667Z,32.60
2022-07-27T10:25:20.474Z,32.80
2022-07-27T10:27:49.293Z,32.00
2022-07-27T10:30:25.025Z,31.00
2022-07-27T10:32:54.573Z,30.00
2022-07-27T10:35:35.319Z,30.20
2022-07-27T10:38:18.177Z,32.20
2022-07-27T10:40:45.031Z,32.90
2022-07-27T10:43:19.964Z,34.00
2022-07-27T10:46:01.509Z,34.20
2022-07-27T10:48:48.287Z,33.10
2022-07-27T10:51:16.579Z,32.40
2022-07-27T10:54:10.905Z,33.30
2022-07-27T10:56:45.867Z,34.60
2022-07-27T10:59:12.608Z,35.90
2022-07-27T11:01:57.360Z,35.90
2022-07-27T11:04:24.636Z,36.40
2022-07-27T11:07:23.556Z,35.90
2022-07-27T11:12:32.115Z,34.50
2022-07-27T11:15:00.966Z,35.40
2022-07-27T11:20:23.745Z,33.90
2022-07-27T11:25:37.247Z,30.60
2022-07-27T11:28:09.559Z,29.20
2022-07-27T11:30:36.496Z,28.30
2022-07-27T11:33:07.234Z,28.40
2022-07-27T11:35:34.156Z,27.90
2022-07-27T11:38:06.017Z,27.70
2022-07-27T11:40:56.842Z,27.10
2022-07-27T11:43:45.153Z,26.70
2022-07-27T11:46:24.440Z,25.90
2022-07-27T11:49:17.570Z,25.70
2022-07-27T11:51:46.952Z,26.20
2022-07-27T11:54:29.751Z,26.60
2022-07-27T11:57:00.610Z,27.30
2022-07-27T11:59:29.304Z,28.00
2022-07-27T12:02:01.021Z,28.50
2022-07-27T12:04:35.503Z,29.20
2022-07-27T12:07:10.923Z,29.50
2022-07-27T12:09:47.863Z,29.40
2022-07-27T12:12:28.613Z,29.70
2022-07-27T12:15:44.743Z,29.60
2022-07-27T12:18:03.828Z,29.50
2022-07-27T12:20:35.761Z,29.30
2022-07-27T12:23:07.097Z,28.80
2022-07-27T12:25:35.306Z,28.60
2022-07-27T12:28:08.347Z,28.60
2022-07-27T12:30:47.186Z,28.00
2022-07-27T12:33:38.905Z,27.90
2022-07-27T12:36:08.389Z,28.00
2022-07-27T12:38:46.075Z,28.00
2022-07-27T12:41:24.925Z,28.20
2022-07-27T12:44:16.793Z,28.60
2022-07-27T12:47:01.945Z,28.20
2022-07-27T12:49:40.807Z,28.60
2022-07-27T12:52:11.001Z,28.70
2022-07-27T12:54:38.323Z,29.40
2022-07-27T12:57:05.238Z,29.20
2022-07-27T12:59:31.993Z,29.40
2022-07-27T13:01:58.803Z,29.20
2022-07-27T13:04:25.813Z,29.20
2022-07-27T13:06:52.502Z,28.80
2022-07-27T13:09:19.203Z,28.20
2022-07-27T13:11:48.075Z,27.50
2022-07-27T13:14:15.305Z,27.30
2022-07-27T13:16:42.050Z,26.90
2022-07-27T13:19:08.917Z,26.60
2022-07-27T13:21:35.716Z,26.20
2022-07-27T13:24:02.851Z,25.90
2022-07-27T13:26:29.560Z,25.50
2022-07-27T13:28:56.275Z,25.30
2022-07-27T13:31:23.040Z,25.10
2022-07-27T13:33:49.758Z,24.90
2022-07-27T13:36:16.769Z,24.90
2022-07-27T13:38:44.087Z,24.80
2022-07-27T13:41:10.967Z,24.90
2022-07-27T13:43:37.701Z,25.00
2022-07-27T13:46:04.913Z,25.50
2022-07-27T13:48:32.565Z,26.30
2022-07-27T13:50:59.393Z,27.40
2022-07-27T13:53:26.376Z,28.50
2022-07-27T13:55:53.119Z,29.00
2022-07-27T13:58:19.904Z,29.50
2022-07-27T14:00:50.438Z,29.70
2022-07-27T14:03:17.523Z,29.60
2022-07-27T14:05:49.085Z,29.30
2022-07-27T14:08:18.031Z,29.10
2022-07-27T14:10:45.191Z,28.90
2022-07-27T14:13:13.978Z,28.60
2022-07-27T14:15:52.943Z,28.50
2022-07-27T14:18:26.085Z,28.20
2022-07-27T14:20:53.617Z,28.40
2022-07-27T14:23:21.002Z,28.60
2022-07-27T14:25:47.931Z,28.90
2022-07-27T14:28:14.783Z,28.50
2022-07-27T14:30:41.595Z,28.70
2022-07-27T14:33:08.358Z,28.00
2022-07-27T14:35:40.298Z,27.90
2022-07-27T14:38:08.139Z,27.90
2022-07-27T14:40:35.380Z,27.80
2022-07-27T14:43:02.193Z,27.60
2022-07-27T14:45:44.458Z,27.40
2022-07-27T14:48:25.061Z,27.20
2022-07-27T14:50:59.743Z,27.30
2022-07-27T14:53:26.547Z,26.80
2022-07-27T14:55:53.230Z,26.90
2022-07-27T14:58:19.940Z,26.60
2022-07-27T15:00:46.744Z,26.40
2022-07-27T15:03:14.805Z,26.40
2022-07-27T15:05:49.762Z,26.50
2022-07-27T15:08:21.242Z,26.60
2022-07-27T15:10:48.850Z,26.70
2022-07-27T15:13:17.085Z,26.60
2022-07-27T15:15:44.039Z,26.60
2022-07-27T15:18:10.806Z,26.30
2022-07-27T15:20:37.546Z,26.10
2022-07-27T15:23:04.481Z,25.80
2022-07-27T15:25:31.292Z,25.40
2022-07-27T15:27:58.287Z,25.50
2022-07-27T15:30:25.204Z,25.50
2022-07-27T15:32:51.898Z,25.50
2022-07-27T15:35:18.699Z,25.70
2022-07-27T15:37:54.157Z,25.80
2022-07-27T15:40:38.812Z,25.80
2022-07-27T15:43:08.559Z,25.80
2022-07-27T15:45:41.023Z,25.80
2022-07-27T15:48:09.443Z,25.40
2022-07-27T15:50:42.127Z,25.40
2022-07-27T15:53:09.746Z,25.30
2022-07-27T15:55:37.686Z,25.20
2022-07-27T15:58:05.907Z,25.20
2022-07-27T16:00:37.120Z,25.00
2022-07-27T16:03:06.492Z,24.70
2022-07-27T16:05:33.289Z,24.60
2022-07-27T16:08:00.000Z,24.50
2022-07-27T16:10:29.513Z,24.40
2022-07-27T16:12:57.351Z,24.40
2022-07-27T16:15:45.121Z,24.30
2022-07-27T16:18:12.191Z,24.30
2022-07-27T16:20:38.980Z,24.20
2022-07-27T16:23:17.657Z,24.10
2022-07-27T16:26:07.495Z,23.80
2022-07-27T16:28:46.914Z,23.90
2022-07-27T16:31:16.445Z,23.80
2022-07-27T16:33:44.460Z,23.70
2022-07-27T16:36:12.454Z,23.50
2022-07-27T16:38:49.574Z,23.30
2022-07-27T16:41:17.399Z,23.20
2022-07-27T16:43:44.519Z,23.10
2022-07-27T16:46:11.423Z,23.10
2022-07-27T16:48:41.945Z,23.20
2022-07-27T16:51:10.968Z,23.30
2022-07-27T16:53:42.445Z,23.20
2022-07-27T16:56:09.684Z,23.30
2022-07-27T16:58:37.364Z,23.40
2022-07-27T17:01:04.571Z,23.10
2022-07-27T17:03:31.486Z,23.10
2022-07-27T17:06:02.211Z,23.20
2022-07-27T17:08:31.889Z,23.00
2022-07-27T17:11:00.505Z,23.00
2022-07-27T17:13:33.775Z,22.90
2022-07-27T17:16:04.037Z,22.90
2022-07-27T17:18:37.178Z,22.90
2022-07-27T17:21:07.474Z,22.80
2022-07-27T17:23:38.019Z,22.70
2022-07-27T17:26:07.226Z,22.80
2022-07-27T17:28:36.748Z,22.80
2022-07-27T17:31:05.648Z,22.60
2022-07-27T17:33:32.581Z,22.50
2022-07-27T17:36:00.063Z,22.30
2022-07-27T17:38:27.166Z,22.20
2022-07-27T17:40:54.667Z,22.00
2022-07-27T17:43:21.385Z,21.90
2022-07-27T17:45:48.558Z,21.80
2022-07-27T17:48:15.428Z,21.80
2022-07-27T17:50:42.181Z,21.70
2022-07-27T17:53:08.911Z,21.70
2022-07-27T17:55:37.853Z,21.60
2022-07-27T17:58:05.174Z,21.70
2022-07-27T18:00:31.957Z,21.60
2022-07-27T18:02:58.729Z,21.60
2022-07-27T18:05:25.543Z,21.50
2022-07-27T18:07:53.551Z,21.40
2022-07-27T18:10:21.007Z,21.30
2022-07-27T18:12:47.787Z,21.20
2022-07-27T18:15:33.716Z,21.30
2022-07-27T18:18:00.662Z,21.10
2022-07-27T18:20:27.592Z,21.00
2022-07-27T18:22:54.322Z,21.00
2022-07-27T18:25:22.084Z,20.90
2022-07-27T18:27:50.085Z,20.80
2022-07-27T18:30:17.659Z,20.80
2022-07-27T18:32:45.504Z,20.60
2022-07-27T18:35:13.013Z,20.50
2022-07-27T18:37:40.129Z,20.50
2022-07-27T18:40:09.068Z,20.30
2022-07-27T18:42:37.194Z,20.10
2022-07-27T18:45:09.242Z,19.90
2022-07-27T18:47:36.752Z,19.90
2022-07-27T18:50:05.153Z,19.70
2022-07-27T18:52:32.033Z,19.60
2022-07-27T18:54:58.924Z,19.50
2022-07-27T18:57:25.700Z,19.40
2022-07-27T18:59:53.550Z,19.30
2022-07-27T19:02:22.539Z,19.10
2022-07-27T19:04:50.726Z,19.10
2022-07-27T19:07:17.719Z,19.00
2022-07-27T19:09:46.597Z,18.90
2022-07-27T19:12:13.389Z,18.70
2022-07-27T19:14:40.196Z,18.70
2022-07-27T19:17:11.867Z,18.60
2022-07-27T19:19:42.002Z,18.50
2022-07-27T19:22:08.728Z,18.50
2022-07-27T19:24:35.448Z,18.40
2022-07-27T19:27:02.323Z,18.30
2022-07-27T19:29:29.119Z,18.20
2022-07-27T19:31:55.953Z,18.10
2022-07-27T19:34:22.885Z,18.00
2022-07-27T19:36:49.790Z,17.90
2022-07-27T19:39:17.010Z,17.80
2022-07-27T19:41:43.810Z,17.80
2022-07-27T19:44:10.548Z,17.80
2022-07-27T19:46:37.792Z,17.80
2022-07-27T19:49:04.859Z,17.70
2022-07-27T19:51:31.793Z,17.60
2022-07-27T19:53:58.619Z,17.50
2022-07-27T19:56:25.507Z,18.30
2022-07-27T19:58:52.251Z,17.30
2022-07-27T20:01:19.157Z,17.20
2022-07-27T20:03:54.360Z,17.00
2022-07-27T20:06:26.129Z,17.00
2022-07-27T20:08:59.554Z,17.00
2022-07-27T20:11:28.353Z,17.10
2022-07-27T20:13:55.207Z,17.00
2022-07-27T20:16:22.046Z,17.10
2022-07-27T20:18:48.816Z,17.00
2022-07-27T20:21:22.836Z,17.00
2022-07-27T20:23:52.406Z,17.00
2022-07-27T20:26:20.181Z,16.90
2022-07-27T20:28:49.252Z,16.80
2022-07-27T20:31:16.150Z,16.80
2022-07-27T20:33:42.927Z,16.70
2022-07-27T20:36:09.665Z,16.70
2022-07-27T20:38:36.376Z,16.70
2022-07-27T20:41:03.147Z,16.70
2022-07-27T20:43:31.050Z,16.60
2022-07-27T20:45:58.079Z,16.70
2022-07-27T20:48:25.111Z,16.60
2022-07-27T20:50:51.904Z,16.50
2022-07-27T20:53:20.323Z,16.40
2022-07-27T20:55:48.048Z,16.40
2022-07-27T20:58:15.036Z,16.40
2022-07-27T21:00:41.801Z,16.30
2022-07-27T21:03:08.668Z,16.30
2022-07-27T21:05:35.443Z,16.10
2022-07-27T21:08:02.241Z,16.10
2022-07-27T21:10:29.031Z,16.00
2022-07-27T21:12:55.798Z,16.00
2022-07-27T21:15:22.632Z,16.00
2022-07-27T21:18:00.629Z,15.90
2022-07-27T21:20:27.601Z,15.80
2022-07-27T21:23:13.039Z,15.70
2022-07-27T21:25:44.022Z,15.70
2022-07-27T21:28:16.838Z,15.50
2022-07-27T21:30:45.263Z,15.60
2022-07-27T21:33:12.087Z,15.40
2022-07-27T21:35:38.976Z,15.30
2022-07-27T21:38:06.196Z,15.20
2022-07-27T21:40:32.994Z,15.20
2022-07-27T21:43:00.921Z,15.20
2022-07-27T21:45:27.838Z,15.20
2022-07-27T21:47:54.672Z,15.10
2022-07-27T21:50:21.440Z,15.00
2022-07-27T21:52:48.175Z,14.90
2022-07-27T21:55:18.306Z,14.80
2022-07-27T21:57:49.626Z,14.80
2022-07-27T22:00:20.704Z,14.80
2022-07-27T22:02:48.729Z,14.60
2022-07-27T22:05:15.732Z,14.60
2022-07-27T22:07:42.617Z,14.50
2022-07-27T22:10:10.044Z,14.40
2022-07-27T22:12:36.829Z,14.30
2022-07-27T22:15:03.829Z,14.20
2022-07-27T22:17:30.528Z,14.20
2022-07-27T22:19:57.265Z,14.10
2022-07-27T22:22:24.234Z,14.20
2022-07-27T22:24:51.056Z,14.30
2022-07-27T22:27:17.959Z,14.40
2022-07-27T22:29:45.818Z,14.40
2022-07-27T22:32:15.715Z,14.30
2022-07-27T22:34:43.282Z,14.20
2022-07-27T22:37:10.770Z,14.10
2022-07-27T22:39:41.775Z,14.00
2022-07-27T22:42:09.972Z,13.90
2022-07-27T22:44:38.077Z,13.80
2022-07-27T22:47:05.595Z,13.80
2022-07-27T22:49:35.049Z,13.70
2022-07-27T22:52:03.323Z,13.70
2022-07-27T22:54:33.356Z,13.70
2022-07-27T22:57:00.378Z,13.70
2022-07-27T22:59:27.075Z,13.90
2022-07-27T23:01:53.923Z,13.70
2022-07-27T23:04:20.699Z,13.70
2022-07-27T23:06:47.546Z,13.60
2022-07-27T23:09:14.989Z,14.00
2022-07-27T23:11:42.133Z,13.80
2022-07-27T23:14:08.944Z,13.70
2022-07-27T23:16:35.752Z,13.70
2022-07-27T23:19:02.656Z,13.70
2022-07-27T23:21:29.419Z,13.70
2022-07-27T23:23:56.253Z,13.70
2022-07-27T23:26:26.148Z,13.70
2022-07-27T23:28:53.828Z,13.60
2022-07-27T23:31:21.207Z,13.70
2022-07-27T23:33:48.279Z,13.60
2022-07-27T23:36:15.773Z,13.60
2022-07-27T23:38:42.774Z,13.50
2022-07-27T23:41:09.513Z,13.40
2022-07-27T23:43:36.267Z,13.40
2022-07-27T23:46:04.721Z,13.80
2022-07-27T23:48:31.460Z,13.30
2022-07-27T23:50:58.532Z,13.20
2022-07-27T23:53:25.259Z,13.20
2022-07-27T23:55:52.691Z,13.20
2022-07-27T23:58:19.402Z,13.10
